createdAt,value
2023-03-26T00:01:46.662Z,15.50
2023-03-26T00:04:14.953Z,20.10
2023-03-26T00:06:44.819Z,17.60
2023-03-26T00:09:32.810Z,15.80
2023-03-26T00:12:03.297Z,19.00
2023-03-26T00:14:35.563Z,16.80
2023-03-26T00:17:04.963Z,18.70
2023-03-26T00:19:33.989Z,19.30
2023-03-26T00:22:03.913Z,19.70
2023-03-26T00:24:32.217Z,21.60
2023-03-26T00:27:04.444Z,21.90
2023-03-26T00:29:41.078Z,23.00
2023-03-26T00:32:11.924Z,24.40
2023-03-26T00:34:49.615Z,22.40
2023-03-26T00:37:18.681Z,27.60
2023-03-26T00:39:49.186Z,26.60
2023-03-26T00:42:17.434Z,30.20
2023-03-26T00:44:45.673Z,29.90
2023-03-26T00:47:13.975Z,30.70
2023-03-26T00:49:42.694Z,25.40
2023-03-26T00:52:11.020Z,31.20
2023-03-26T00:54:39.159Z,29.10
2023-03-26T00:57:22.619Z,24.10
2023-03-26T00:59:57.180Z,21.30
2023-03-26T01:02:25.439Z,22.90
2023-03-26T01:04:58.044Z,23.90
2023-03-26T01:07:29.028Z,17.80
2023-03-26T01:09:58.060Z,19.60
2023-03-26T01:12:26.868Z,15.30
2023-03-26T01:14:56.978Z,15.20
2023-03-26T01:17:25.099Z,13.00
2023-03-26T01:20:06.144Z,11.60
2023-03-26T01:22:35.513Z,10.10
2023-03-26T01:25:04.183Z,8.40
2023-03-26T01:27:36.196Z,11.10
2023-03-26T01:30:13.013Z,8.70
2023-03-26T01:32:48.035Z,5.30
2023-03-26T01:35:36.326Z,5.60
2023-03-26T01:38:23.257Z,6.70
2023-03-26T01:40:54.790Z,3.80
2023-03-26T01:43:28.909Z,3.70
2023-03-26T01:45:57.353Z,3.40
2023-03-26T01:48:32.188Z,3.20
2023-03-26T01:51:00.616Z,2.50
2023-03-26T01:53:28.931Z,2.40
2023-03-26T01:56:02.158Z,2.70
2023-03-26T01:58:42.152Z,3.60
2023-03-26T02:01:13.909Z,2.80
2023-03-26T02:03:45.158Z,2.20
2023-03-26T02:06:26.801Z,2.30
2023-03-26T02:08:59.241Z,2.20
2023-03-26T02:14:04.173Z,2.60
2023-03-26T02:16:32.398Z,2.20
2023-03-26T02:19:01.453Z,2.10
2023-03-26T02:21:34.229Z,2.40
2023-03-26T02:24:03.501Z,2.40
2023-03-26T02:26:34.966Z,2.40
2023-03-26T02:29:07.798Z,2.20
2023-03-26T02:31:38.695Z,3.60
2023-03-26T02:34:07.017Z,2.30
2023-03-26T02:36:37.091Z,2.50
2023-03-26T02:39:05.683Z,2.20
2023-03-26T02:41:37.132Z,3.30
2023-03-26T02:44:09.159Z,3.90
2023-03-26T02:47:09.686Z,3.30
2023-03-26T02:49:53.003Z,4.70
2023-03-26T02:52:29.775Z,3.10
2023-03-26T02:55:04.895Z,3.30
2023-03-26T02:57:34.831Z,3.00
2023-03-26T03:00:22.950Z,4.40
2023-03-26T03:03:11.312Z,4.70
2023-03-26T03:05:58.014Z,3.20
2023-03-26T03:08:41.805Z,4.90
2023-03-26T03:11:48.466Z,4.70
2023-03-26T03:14:16.482Z,3.00
2023-03-26T03:16:44.567Z,3.50
2023-03-26T03:19:13.028Z,3.30
2023-03-26T03:21:46.660Z,6.00
2023-03-26T03:24:18.582Z,6.10
2023-03-26T03:26:48.251Z,4.00
2023-03-26T03:29:55.921Z,3.40
2023-03-26T03:32:42.513Z,5.80
2023-03-26T03:35:12.380Z,7.00
2023-03-26T03:37:43.575Z,3.80
2023-03-26T03:40:12.105Z,5.70
2023-03-26T03:42:41.112Z,7.90
2023-03-26T03:45:10.028Z,7.10
2023-03-26T03:47:59.460Z,5.30
2023-03-26T03:50:37.307Z,5.50
2023-03-26T03:53:18.598Z,3.50
2023-03-26T03:56:10.655Z,4.80
2023-03-26T03:59:02.207Z,3.70
2023-03-26T04:04:09.139Z,2.90
2023-03-26T04:06:53.513Z,3.20
2023-03-26T04:09:21.879Z,3.20
2023-03-26T04:11:58.868Z,3.50
2023-03-26T04:14:50.763Z,5.60
2023-03-26T04:17:24.185Z,9.00
2023-03-26T04:19:55.272Z,6.60
2023-03-26T04:22:36.684Z,4.70
2023-03-26T04:25:09.665Z,4.30
2023-03-26T04:27:48.292Z,4.00
2023-03-26T04:30:28.673Z,4.60
2023-03-26T04:33:06.483Z,5.60
2023-03-26T04:35:41.880Z,7.90
2023-03-26T04:38:16.955Z,3.50
2023-03-26T04:40:47.717Z,5.60
2023-03-26T04:43:36.884Z,5.70
2023-03-26T04:46:25.198Z,3.20
2023-03-26T04:49:04.885Z,3.20
2023-03-26T04:51:38.213Z,4.40
2023-03-26T04:54:12.756Z,4.80
2023-03-26T04:56:56.904Z,6.40
2023-03-26T04:59:35.030Z,5.00
2023-03-26T05:02:05.565Z,4.50
2023-03-26T05:04:39.774Z,5.80
2023-03-26T05:07:12.733Z,4.80
2023-03-26T05:09:50.482Z,4.60
2023-03-26T05:12:24.236Z,4.60
2023-03-26T05:14:59.861Z,5.70
2023-03-26T05:17:48.582Z,7.40
2023-03-26T05:20:26.487Z,7.70
2023-03-26T05:22:57.585Z,3.40
2023-03-26T05:25:35.491Z,3.20
2023-03-26T05:28:05.080Z,3.20
2023-03-26T05:30:46.192Z,4.40
2023-03-26T05:33:14.812Z,4.00
2023-03-26T05:35:49.643Z,9.10
2023-03-26T05:38:18.248Z,3.90
2023-03-26T05:40:46.744Z,6.90
2023-03-26T05:43:20.407Z,4.60
2023-03-26T05:46:02.123Z,2.70
2023-03-26T05:48:31.943Z,6.00
2023-03-26T05:51:00.889Z,4.00
2023-03-26T05:53:45.793Z,6.20
2023-03-26T05:57:00.849Z,7.90
2023-03-26T05:59:47.395Z,4.40
2023-03-26T06:02:18.392Z,4.90
2023-03-26T06:05:12.974Z,7.60
2023-03-26T06:08:08.636Z,3.90
2023-03-26T06:10:39.241Z,7.00
2023-03-26T06:13:07.467Z,4.00
2023-03-26T06:15:40.076Z,5.00
2023-03-26T06:18:18.303Z,5.00
2023-03-26T06:21:19.345Z,3.10
2023-03-26T06:23:51.967Z,5.00
2023-03-26T06:26:43.143Z,16.60
2023-03-26T06:29:22.329Z,6.00
2023-03-26T06:32:19.143Z,7.10
2023-03-26T06:35:17.612Z,21.00
2023-03-26T06:37:46.366Z,7.40
2023-03-26T06:40:15.999Z,3.60
2023-03-26T06:43:08.549Z,6.50
2023-03-26T06:46:05.280Z,4.10
2023-03-26T06:48:39.877Z,4.20
2023-03-26T06:51:26.950Z,3.00
2023-03-26T06:54:14.273Z,3.20
2023-03-26T06:57:02.683Z,3.70
2023-03-26T07:00:04.199Z,6.60
2023-03-26T07:02:51.194Z,9.90
2023-03-26T07:05:38.428Z,3.70
2023-03-26T07:08:27.152Z,27.20
2023-03-26T07:11:13.596Z,11.10
2023-03-26T07:14:00.378Z,10.80
2023-03-26T07:17:07.678Z,13.90
2023-03-26T07:19:47.976Z,5.40
2023-03-26T07:22:20.765Z,31.20
2023-03-26T07:25:15.894Z,16.90
2023-03-26T07:28:30.876Z,6.90
2023-03-26T07:31:09.862Z,3.50
2023-03-26T07:33:55.859Z,3.20
2023-03-26T07:36:56.486Z,3.40
2023-03-26T07:39:53.740Z,29.60
2023-03-26T07:43:00.996Z,35.90
2023-03-26T07:45:47.735Z,24.60
2023-03-26T07:48:29.964Z,4.40
2023-03-26T07:51:23.106Z,4.70
2023-03-26T07:54:24.881Z,4.60
2023-03-26T07:57:47.905Z,7.70
2023-03-26T08:00:30.040Z,4.30
2023-03-26T08:02:58.737Z,4.60
2023-03-26T08:06:02.079Z,4.50
2023-03-26T08:08:50.528Z,3.70
2023-03-26T08:11:48.251Z,11.90
2023-03-26T08:14:42.808Z,11.20
2023-03-26T08:17:12.211Z,5.10
2023-03-26T08:20:06.030Z,7.20
2023-03-26T08:22:46.155Z,7.60
2023-03-26T08:25:35.118Z,9.30
2023-03-26T08:28:08.669Z,6.50
2023-03-26T08:30:37.312Z,5.10
2023-03-26T08:33:11.530Z,5.00
2023-03-26T08:35:43.168Z,4.80
2023-03-26T08:38:13.571Z,6.60
2023-03-26T08:40:50.546Z,9.20
2023-03-26T08:43:31.827Z,6.10
2023-03-26T08:46:18.775Z,11.50
2023-03-26T08:49:05.911Z,45.40
2023-03-26T08:51:51.738Z,12.30
2023-03-26T08:54:24.092Z,17.50
2023-03-26T08:56:53.984Z,13.10
2023-03-26T08:59:42.474Z,10.30
2023-03-26T09:02:19.703Z,7.70
2023-03-26T09:05:03.516Z,7.30
2023-03-26T09:07:40.971Z,7.20
2023-03-26T09:10:09.669Z,6.80
2023-03-26T09:12:56.254Z,9.70
2023-03-26T09:15:33.726Z,9.60
2023-03-26T09:18:21.353Z,12.30
2023-03-26T09:21:12.700Z,15.60
2023-03-26T09:23:44.210Z,10.90
2023-03-26T09:26:12.247Z,9.80
2023-03-26T09:28:47.345Z,10.50
2023-03-26T09:31:15.681Z,10.70
2023-03-26T09:34:01.973Z,16.40
2023-03-26T09:36:48.800Z,10.40
2023-03-26T09:39:37.803Z,13.20
2023-03-26T09:42:10.090Z,15.70
2023-03-26T09:44:57.235Z,11.30
2023-03-26T09:47:40.706Z,11.30
2023-03-26T09:50:14.388Z,12.20
2023-03-26T09:52:42.530Z,11.60
2023-03-26T09:55:19.880Z,13.70
2023-03-26T09:57:51.451Z,16.20
2023-03-26T10:00:23.122Z,16.30
2023-03-26T10:02:54.717Z,17.30
2023-03-26T10:05:28.089Z,15.30
2023-03-26T10:08:02.403Z,15.30
2023-03-26T10:10:52.328Z,11.60
2023-03-26T10:13:21.074Z,14.90
2023-03-26T10:15:58.731Z,17.80
2023-03-26T10:18:30.363Z,16.20
2023-03-26T10:21:04.778Z,18.90
2023-03-26T10:23:51.049Z,16.80
2023-03-26T10:27:09.099Z,18.80
2023-03-26T10:29:39.209Z,16.70
2023-03-26T10:32:22.876Z,15.70
2023-03-26T10:34:52.022Z,15.40
2023-03-26T10:37:35.699Z,14.20
2023-03-26T10:40:10.305Z,12.10
2023-03-26T10:42:57.597Z,12.40
2023-03-26T10:45:44.412Z,12.20
2023-03-26T10:48:15.707Z,14.40
2023-03-26T10:51:03.440Z,14.70
2023-03-26T10:53:34.063Z,14.80
2023-03-26T10:56:07.730Z,11.40
2023-03-26T10:58:49.353Z,10.00
2023-03-26T11:01:22.217Z,10.60
2023-03-26T11:03:54.578Z,9.70
2023-03-26T11:06:45.247Z,11.60
2023-03-26T11:09:19.050Z,9.00
2023-03-26T11:12:26.519Z,9.00
2023-03-26T11:15:00.792Z,17.00
2023-03-26T11:17:40.454Z,22.60
2023-03-26T11:20:09.963Z,11.80
2023-03-26T11:22:57.392Z,12.30
2023-03-26T11:25:36.147Z,6.20
2023-03-26T11:28:23.759Z,7.30
2023-03-26T11:30:59.440Z,26.00
2023-03-26T11:33:32.754Z,17.20
2023-03-26T11:36:02.125Z,7.00
2023-03-26T11:38:33.767Z,7.00
2023-03-26T11:41:15.252Z,8.80
2023-03-26T11:44:10.446Z,11.40
2023-03-26T11:46:40.628Z,7.20
2023-03-26T11:49:39.738Z,13.30
2023-03-26T11:52:20.796Z,8.00
2023-03-26T11:54:50.802Z,7.40
2023-03-26T11:57:23.193Z,4.30
2023-03-26T11:59:57.544Z,6.40
2023-03-26T12:02:29.626Z,5.70
2023-03-26T12:05:26.777Z,5.40
2023-03-26T12:07:59.957Z,7.60
2023-03-26T12:12:58.529Z,7.90
2023-03-26T12:15:32.254Z,5.90
2023-03-26T12:18:18.063Z,5.30
2023-03-26T12:20:46.657Z,5.80
2023-03-26T12:23:33.268Z,9.10
2023-03-26T12:26:04.991Z,6.20
2023-03-26T12:28:33.529Z,6.80
2023-03-26T12:31:03.176Z,10.50
2023-03-26T12:33:35.202Z,7.50
2023-03-26T12:36:39.302Z,5.40
2023-03-26T12:40:09.701Z,3.50
2023-03-26T12:44:44.673Z,3.40
2023-03-26T12:45:15.215Z,5.40
2023-03-26T12:48:01.203Z,4.70
2023-03-26T12:50:40.826Z,4.30
2023-03-26T12:53:09.232Z,7.70
2023-03-26T12:55:59.759Z,4.30
2023-03-26T12:58:51.270Z,5.90
2023-03-26T13:01:27.840Z,6.00
2023-03-26T13:03:56.834Z,4.50
2023-03-26T13:06:24.791Z,6.20
2023-03-26T13:09:07.293Z,6.10
2023-03-26T13:12:10.597Z,8.10
2023-03-26T13:14:43.082Z,9.00
2023-03-26T13:17:31.198Z,14.30
2023-03-26T13:20:25.398Z,3.20
2023-03-26T13:22:54.309Z,10.40
2023-03-26T13:25:35.346Z,4.60
2023-03-26T13:28:26.432Z,5.60
2023-03-26T13:30:55.078Z,5.80
2023-03-26T13:33:37.097Z,3.60
2023-03-26T13:36:25.003Z,3.80
2023-03-26T13:39:03.250Z,4.40
2023-03-26T13:41:50.145Z,5.20
2023-03-26T13:44:29.001Z,13.30
2023-03-26T13:47:01.036Z,6.60
2023-03-26T13:49:38.766Z,5.80
2023-03-26T13:52:07.094Z,17.20
2023-03-26T13:54:35.565Z,9.00
2023-03-26T13:57:31.993Z,3.90
2023-03-26T14:00:06.691Z,5.30
2023-03-26T14:05:18.818Z,5.30
2023-03-26T14:11:31.922Z,4.40
2023-03-26T14:18:08.540Z,5.10
2023-03-26T14:21:42.486Z,4.30
2023-03-26T14:24:24.696Z,3.50
2023-03-26T14:27:10.158Z,5.60
2023-03-26T14:30:39.556Z,3.90
2023-03-26T14:33:27.274Z,4.40
2023-03-26T14:36:05.832Z,2.90
2023-03-26T14:38:34.592Z,3.70
2023-03-26T14:41:11.676Z,5.70
2023-03-26T14:44:01.245Z,4.50
2023-03-26T14:46:34.278Z,2.60
2023-03-26T14:49:23.467Z,2.50
2023-03-26T14:52:13.595Z,2.50
2023-03-26T14:54:42.587Z,6.00
2023-03-26T14:57:17.645Z,3.60
2023-03-26T14:59:57.979Z,3.30
2023-03-26T15:02:26.295Z,2.60
2023-03-26T15:04:54.391Z,3.30
2023-03-26T15:07:30.364Z,4.50
2023-03-26T15:10:18.129Z,3.80
2023-03-26T15:13:16.293Z,3.90
2023-03-26T15:19:55.668Z,4.90
2023-03-26T15:22:42.497Z,4.40
2023-03-26T15:25:29.293Z,3.70
2023-03-26T15:27:57.657Z,3.40
2023-03-26T15:30:27.980Z,5.00
2023-03-26T15:33:06.435Z,2.70
2023-03-26T15:35:34.473Z,2.80
2023-03-26T15:38:18.001Z,3.60
2023-03-26T15:41:05.405Z,5.20
2023-03-26T15:44:22.675Z,3.70
2023-03-26T15:46:59.455Z,4.50
2023-03-26T15:49:31.199Z,4.70
2023-03-26T15:52:06.452Z,4.30
2023-03-26T15:54:56.334Z,6.40
2023-03-26T15:57:28.866Z,5.30
2023-03-26T16:00:12.747Z,5.20
2023-03-26T16:02:50.550Z,6.90
2023-03-26T16:05:19.573Z,8.30
2023-03-26T16:07:50.022Z,7.60
2023-03-26T16:10:28.746Z,7.30
2023-03-26T16:13:15.573Z,9.10
2023-03-26T16:15:53.014Z,11.30
2023-03-26T16:18:37.281Z,13.70
2023-03-26T16:21:31.318Z,10.10
2023-03-26T16:24:02.389Z,9.70
2023-03-26T16:26:49.620Z,8.40
2023-03-26T16:29:18.519Z,12.10
2023-03-26T16:32:11.258Z,11.30
2023-03-26T16:34:47.797Z,9.20
2023-03-26T16:37:36.460Z,6.40
2023-03-26T16:40:26.381Z,7.20
2023-03-26T16:43:16.821Z,7.00
2023-03-26T16:46:03.842Z,8.00
2023-03-26T16:48:46.292Z,9.50
2023-03-26T16:51:18.864Z,10.30
2023-03-26T16:54:06.359Z,9.30
2023-03-26T16:56:46.198Z,7.30
2023-03-26T16:59:29.647Z,5.60
2023-03-26T17:01:59.903Z,8.90
2023-03-26T17:04:29.416Z,7.30
2023-03-26T17:07:03.632Z,5.90
2023-03-26T17:09:52.052Z,6.10
2023-03-26T17:12:27.178Z,4.30
2023-03-26T17:15:07.961Z,7.40
2023-03-26T17:17:51.513Z,6.60
2023-03-26T17:20:39.879Z,5.60
2023-03-26T17:23:27.018Z,9.90
2023-03-26T17:26:04.181Z,10.90
2023-03-26T17:28:50.542Z,8.80
2023-03-26T17:31:39.330Z,6.90
2023-03-26T17:34:26.587Z,5.40
2023-03-26T17:36:58.269Z,5.20
2023-03-26T17:41:55.750Z,12.60
2023-03-26T17:44:28.186Z,17.10
2023-03-26T17:46:56.250Z,10.00
2023-03-26T17:49:29.038Z,10.40
2023-03-26T17:52:16.049Z,12.40
2023-03-26T17:54:45.452Z,11.10
2023-03-26T17:57:27.200Z,12.20
2023-03-26T17:59:58.886Z,10.00
2023-03-26T18:04:56.048Z,10.20
2023-03-26T18:07:26.291Z,12.30
2023-03-26T18:10:08.925Z,16.70
2023-03-26T18:12:43.125Z,18.90
2023-03-26T18:15:32.212Z,13.90
2023-03-26T18:18:23.586Z,16.80
2023-03-26T18:20:52.023Z,11.90
2023-03-26T18:23:29.645Z,12.30
2023-03-26T18:25:58.987Z,5.60
2023-03-26T18:28:31.189Z,6.00
2023-03-26T18:31:07.126Z,6.10
2023-03-26T18:33:43.054Z,5.60
2023-03-26T18:36:12.137Z,7.30
2023-03-26T18:38:43.311Z,13.50
2023-03-26T18:41:20.689Z,12.80
2023-03-26T18:43:48.870Z,10.70
2023-03-26T18:46:17.122Z,9.90
2023-03-26T18:48:47.394Z,14.10
2023-03-26T18:51:23.193Z,11.90
2023-03-26T18:53:58.499Z,11.40
2023-03-26T18:56:27.658Z,11.00
2023-03-26T18:58:59.243Z,14.60
2023-03-26T19:01:30.888Z,16.00
2023-03-26T19:03:59.973Z,15.00
2023-03-26T19:06:28.350Z,13.80
2023-03-26T19:08:56.373Z,15.10
2023-03-26T19:11:25.031Z,18.30
2023-03-26T19:14:06.890Z,17.10
2023-03-26T19:16:36.868Z,19.70
2023-03-26T19:19:05.939Z,19.30
2023-03-26T19:21:34.351Z,20.70
2023-03-26T19:24:02.696Z,16.20
2023-03-26T19:26:31.680Z,15.40
2023-03-26T19:29:00.976Z,15.60
2023-03-26T19:31:36.284Z,15.10
2023-03-26T19:34:14.190Z,13.80
2023-03-26T19:37:03.107Z,12.60
2023-03-26T19:39:41.703Z,14.50
2023-03-26T19:42:13.629Z,10.80
2023-03-26T19:44:41.840Z,12.10
2023-03-26T19:47:20.643Z,13.30
2023-03-26T19:49:51.378Z,10.70
2023-03-26T19:52:19.411Z,11.40
2023-03-26T19:55:04.053Z,9.90
2023-03-26T19:57:34.002Z,10.60
2023-03-26T20:00:09.701Z,13.50
2023-03-26T20:02:40.079Z,10.40
2023-03-26T20:05:13.226Z,11.90
2023-03-26T20:07:41.536Z,10.70
2023-03-26T20:10:10.914Z,11.00
2023-03-26T20:12:38.901Z,10.70
2023-03-26T20:15:19.280Z,10.10
2023-03-26T20:17:55.869Z,10.00
2023-03-26T20:20:45.036Z,9.40
2023-03-26T20:23:14.528Z,8.00
2023-03-26T20:25:46.576Z,7.30
2023-03-26T20:28:14.569Z,8.30
2023-03-26T20:30:42.574Z,7.40
2023-03-26T20:33:14.827Z,6.10
2023-03-26T20:35:43.874Z,10.40
2023-03-26T20:38:13.314Z,10.10
2023-03-26T20:40:41.404Z,7.70
2023-03-26T20:43:12.979Z,8.70
2023-03-26T20:45:40.970Z,8.00
2023-03-26T20:48:10.647Z,9.50
2023-03-26T20:50:50.504Z,8.70
2023-03-26T20:53:31.357Z,7.40
2023-03-26T20:56:00.223Z,9.20
2023-03-26T20:58:30.748Z,7.50
2023-03-26T21:01:02.329Z,7.20
2023-03-26T21:03:31.840Z,11.20
2023-03-26T21:06:01.661Z,6.00
2023-03-26T21:08:36.102Z,9.50
2023-03-26T21:11:05.627Z,9.60
2023-03-26T21:13:33.691Z,6.80
2023-03-26T21:16:03.561Z,8.80
2023-03-26T21:18:32.207Z,8.40
2023-03-26T21:21:22.527Z,6.40
2023-03-26T21:23:59.437Z,5.20
2023-03-26T21:26:32.737Z,15.70
2023-03-26T21:29:02.403Z,7.10
2023-03-26T21:31:31.115Z,7.00
2023-03-26T21:33:59.655Z,7.10
2023-03-26T21:36:29.382Z,5.80
2023-03-26T21:38:57.543Z,6.50
2023-03-26T21:41:35.862Z,6.80
2023-03-26T21:44:03.975Z,5.90
2023-03-26T21:46:32.246Z,5.10
2023-03-26T21:49:00.347Z,8.40
2023-03-26T21:51:28.890Z,7.60
2023-03-26T21:54:01.259Z,5.20
2023-03-26T21:56:29.608Z,8.20
2023-03-26T21:59:16.198Z,6.10
2023-03-26T22:01:45.027Z,7.20
2023-03-26T22:04:34.821Z,8.20
2023-03-26T22:07:05.947Z,4.10
2023-03-26T22:09:36.466Z,7.10
2023-03-26T22:12:05.497Z,5.20
2023-03-26T22:14:34.564Z,5.90
2023-03-26T22:17:02.630Z,4.80
2023-03-26T22:19:30.673Z,8.60
2023-03-26T22:22:00.335Z,4.80
2023-03-26T22:24:28.660Z,7.10
2023-03-26T22:27:03.759Z,4.90
2023-03-26T22:29:33.507Z,6.00
2023-03-26T22:32:03.588Z,7.00
2023-03-26T22:34:35.164Z,6.40
2023-03-26T22:37:03.148Z,10.90
2023-03-26T22:39:34.718Z,6.60
2023-03-26T22:42:11.230Z,5.50
2023-03-26T22:44:39.804Z,8.00
2023-03-26T22:47:09.453Z,6.20
2023-03-26T22:49:37.630Z,5.80
2023-03-26T22:52:08.471Z,7.00
2023-03-26T22:54:38.038Z,5.80
2023-03-26T22:57:06.030Z,4.90
2023-03-26T22:59:35.663Z,6.40
2023-03-26T23:02:04.393Z,4.60
2023-03-26T23:04:32.631Z,6.40
2023-03-26T23:07:00.839Z,4.40
2023-03-26T23:09:30.564Z,7.30
2023-03-26T23:12:00.738Z,5.40
2023-03-26T23:14:28.865Z,5.20
2023-03-26T23:16:57.448Z,4.20
2023-03-26T23:19:34.198Z,5.40
2023-03-26T23:22:02.519Z,6.90
2023-03-26T23:24:30.649Z,7.30
2023-03-26T23:27:00.961Z,6.00
2023-03-26T23:32:23.369Z,6.10
2023-03-26T23:34:53.014Z,7.90
2023-03-26T23:37:23.539Z,4.90
2023-03-26T23:40:16.335Z,7.40
2023-03-26T23:42:44.373Z,8.20
2023-03-26T23:45:13.144Z,6.70
2023-03-26T23:47:42.637Z,5.20
2023-03-26T23:50:13.375Z,5.50
2023-03-26T23:52:45.557Z,7.30
2023-03-26T23:55:13.546Z,9.50
2023-03-26T23:57:41.880Z,6.10
